Sand Barrens, Illinois
Current Conditions -  °F | °C
As of 8:55 AM on Monday 24 Nov 2014 (Local Time) from KAJG Reporting Station
Overcast Overcast  
Wind Chill: 35°   Ceiling: 2100
Heat Index: 43°   Visibility: 10mi
Dew Point: 34°   Wind: 18mph
Humidity: 70%   Direction: 250°WSW
Pressure: 29.58"   Gusts: 23mph
Location:  38.6278°N, 87.6942°W
Report Text: KAJG 241455Z AUTO 25016G20KT 10SM BKN021 OVC033 06/01 A2958 RMK AO2
Loading
Personal Weather Stations






























Interactive Weather Map New forecast layout! Learn more

10-Day Weather Forecast

Advertisements
Track Severe Weather on mobile